sensor_id;sensor_type;location;lat;lon;timestamp;pressure;altitude;pressure_sealevel;temperature;humidity
12868;BME280;33517;49.866;8.320;2023-02-28T00:00:36;101594.09;;;-1.11;60.76
12868;BME280;33517;49.866;8.320;2023-02-28T00:03:28;101593.88;;;-1.07;61.55
12868;BME280;33517;49.866;8.320;2023-02-28T00:06:20;101597.13;;;-1.02;61.89
12868;BME280;33517;49.866;8.320;2023-02-28T00:09:12;101588.47;;;-1.01;61.39
12868;BME280;33517;49.866;8.320;2023-02-28T00:12:05;101597.84;;;-0.98;61.54
12868;BME280;33517;49.866;8.320;2023-02-28T00:15:00;101589.19;;;-0.97;61.74
12868;BME280;33517;49.866;8.320;2023-02-28T00:17:52;101594.41;;;-0.99;61.56
12868;BME280;33517;49.866;8.320;2023-02-28T00:20:45;101593.69;;;-1.02;61.55
12868;BME280;33517;49.866;8.320;2023-02-28T00:23:37;101595.63;;;-1.07;61.71
12868;BME280;33517;49.866;8.320;2023-02-28T00:26:28;101593.34;;;-1.15;61.44
12868;BME280;33517;49.866;8.320;2023-02-28T00:29:22;101587.84;;;-1.27;61.25
12868;BME280;33517;49.866;8.320;2023-02-28T00:32:13;101598.59;;;-1.38;61.54
12868;BME280;33517;49.866;8.320;2023-02-28T00:35:07;101595.50;;;-1.46;61.27
12868;BME280;33517;49.866;8.320;2023-02-28T00:37:59;101594.09;;;-1.54;61.39
12868;BME280;33517;49.866;8.320;2023-02-28T00:40:51;101585.78;;;-1.61;61.83
12868;BME280;33517;49.866;8.320;2023-02-28T00:43:43;101592.09;;;-1.69;61.55
12868;BME280;33517;49.866;8.320;2023-02-28T00:46:36;101594.13;;;-1.77;61.49
12868;BME280;33517;49.866;8.320;2023-02-28T00:49:28;101596.94;;;-1.83;61.98
12868;BME280;33517;49.866;8.320;2023-02-28T00:52:20;101590.13;;;-1.84;61.79
12868;BME280;33517;49.866;8.320;2023-02-28T00:55:12;101594.50;;;-1.87;61.75
12868;BME280;33517;49.866;8.320;2023-02-28T00:58:03;101592.97;;;-1.92;62.12
12868;BME280;33517;49.866;8.320;2023-02-28T01:00:55;101585.47;;;-1.98;62.24
12868;BME280;33517;49.866;8.320;2023-02-28T01:03:48;101600.09;;;-1.99;63.24
12868;BME280;33517;49.866;8.320;2023-02-28T01:06:40;101590.69;;;-2.00;62.90
12868;BME280;33517;49.866;8.320;2023-02-28T01:09:32;101598.53;;;-2.03;62.78
12868;BME280;33517;49.866;8.320;2023-02-28T01:12:24;101594.38;;;-2.07;63.42
12868;BME280;33517;49.866;8.320;2023-02-28T01:15:16;101594.63;;;-2.13;63.04
12868;BME280;33517;49.866;8.320;2023-02-28T01:18:08;101595.69;;;-2.18;63.35
12868;BME280;33517;49.866;8.320;2023-02-28T01:21:04;101589.00;;;-2.24;63.58
12868;BME280;33517;49.866;8.320;2023-02-28T01:23:57;101594.22;;;-2.25;63.36
12868;BME280;33517;49.866;8.320;2023-02-28T01:26:49;101592.53;;;-2.26;63.52
12868;BME280;33517;49.866;8.320;2023-02-28T01:29:41;101589.06;;;-2.25;63.65
12868;BME280;33517;49.866;8.320;2023-02-28T01:32:33;101582.31;;;-2.29;63.54
12868;BME280;33517;49.866;8.320;2023-02-28T01:35:25;101588.47;;;-2.33;64.07
12868;BME280;33517;49.866;8.320;2023-02-28T01:38:18;101581.81;;;-2.39;64.01
12868;BME280;33517;49.866;8.320;2023-02-28T01:41:15;101587.19;;;-2.45;63.52
12868;BME280;33517;49.866;8.320;2023-02-28T01:47:39;101574.69;;;-2.55;63.66
12868;BME280;33517;49.866;8.320;2023-02-28T01:50:35;101579.13;;;-2.59;63.98
12868;BME280;33517;49.866;8.320;2023-02-28T01:53:32;101577.53;;;-2.63;64.10
12868;BME280;33517;49.866;8.320;2023-02-28T01:56:29;101582.84;;;-2.67;64.41
12868;BME280;33517;49.866;8.320;2023-02-28T01:59:24;101569.16;;;-2.68;64.36
12868;BME280;33517;49.866;8.320;2023-02-28T02:02:20;101573.53;;;-2.71;64.88
12868;BME280;33517;49.866;8.320;2023-02-28T02:05:15;101574.53;;;-2.75;64.52
12868;BME280;33517;49.866;8.320;2023-02-28T02:08:10;101573.81;;;-2.79;64.66
12868;BME280;33517;49.866;8.320;2023-02-28T02:11:07;101573.91;;;-2.82;64.48
12868;BME280;33517;49.866;8.320;2023-02-28T02:14:13;101570.50;;;-2.83;65.04
12868;BME280;33517;49.866;8.320;2023-02-28T02:17:19;101560.34;;;-2.87;64.93
12868;BME280;33517;49.866;8.320;2023-02-28T02:27:44;101559.59;;;-2.91;66.09
12868;BME280;33517;49.866;8.320;2023-02-28T02:30:55;101555.31;;;-2.90;65.83
12868;BME280;33517;49.866;8.320;2023-02-28T02:34:13;101557.94;;;-2.92;66.10
12868;BME280;33517;49.866;8.320;2023-02-28T02:37:18;101551.00;;;-2.90;66.20
12868;BME280;33517;49.866;8.320;2023-02-28T02:40:16;101555.94;;;-2.84;66.30
12868;BME280;33517;49.866;8.320;2023-02-28T02:43:14;101561.09;;;-2.84;66.10
12868;BME280;33517;49.866;8.320;2023-02-28T02:46:12;101563.69;;;-2.85;66.31
12868;BME280;33517;49.866;8.320;2023-02-28T02:49:09;101550.59;;;-2.77;66.60
12868;BME280;33517;49.866;8.320;2023-02-28T02:52:05;101557.56;;;-2.81;66.93
12868;BME280;33517;49.866;8.320;2023-02-28T02:54:59;101558.41;;;-2.81;66.95
12868;BME280;33517;49.866;8.320;2023-02-28T02:57:54;101555.03;;;-2.83;66.96
12868;BME280;33517;49.866;8.320;2023-02-28T03:00:50;101561.97;;;-2.85;67.46
12868;BME280;33517;49.866;8.320;2023-02-28T03:03:44;101563.69;;;-2.85;67.45
12868;BME280;33517;49.866;8.320;2023-02-28T03:06:38;101563.63;;;-2.82;67.67
12868;BME280;33517;49.866;8.320;2023-02-28T03:09:33;101563.69;;;-2.85;67.81
12868;BME280;33517;49.866;8.320;2023-02-28T03:12:44;101553.53;;;-2.88;67.59
12868;BME280;33517;49.866;8.320;2023-02-28T03:15:45;101554.50;;;-2.92;67.71
12868;BME280;33517;49.866;8.320;2023-02-28T03:18:49;101557.22;;;-2.97;67.80
12868;BME280;33517;49.866;8.320;2023-02-28T03:21:53;101553.91;;;-2.99;68.00
12868;BME280;33517;49.866;8.320;2023-02-28T03:24:52;101555.75;;;-3.04;67.96
12868;BME280;33517;49.866;8.320;2023-02-28T03:27:52;101563.53;;;-3.05;68.24
12868;BME280;33517;49.866;8.320;2023-02-28T03:30:50;101558.47;;;-3.07;68.39
12868;BME280;33517;49.866;8.320;2023-02-28T03:33:48;101540.53;;;-3.10;68.20
12868;BME280;33517;49.866;8.320;2023-02-28T03:36:48;101553.41;;;-3.10;68.63
12868;BME280;33517;49.866;8.320;2023-02-28T03:39:43;101556.81;;;-3.09;68.94
12868;BME280;33517;49.866;8.320;2023-02-28T03:42:39;101555.16;;;-3.10;68.34
12868;BME280;33517;49.866;8.320;2023-02-28T03:45:34;101550.09;;;-3.13;68.41
12868;BME280;33517;49.866;8.320;2023-02-28T03:48:31;101557.00;;;-3.15;68.68
12868;BME280;33517;49.866;8.320;2023-02-28T03:51:27;101556.22;;;-3.17;68.91
12868;BME280;33517;49.866;8.320;2023-02-28T03:54:27;101558.00;;;-3.19;68.85
12868;BME280;33517;49.866;8.320;2023-02-28T03:57:26;101562.34;;;-3.21;68.58
12868;BME280;33517;49.866;8.320;2023-02-28T04:00:20;101564.19;;;-3.25;68.84
12868;BME280;33517;49.866;8.320;2023-02-28T04:03:14;101561.75;;;-3.28;69.30
12868;BME280;33517;49.866;8.320;2023-02-28T04:06:08;101559.31;;;-3.32;69.19
12868;BME280;33517;49.866;8.320;2023-02-28T04:09:06;101565.38;;;-3.35;69.61
12868;BME280;33517;49.866;8.320;2023-02-28T04:12:00;101561.19;;;-3.37;69.56
12868;BME280;33517;49.866;8.320;2023-02-28T04:14:51;101571.47;;;-3.37;69.07
12868;BME280;33517;49.866;8.320;2023-02-28T04:17:43;101563.81;;;-3.39;69.45
12868;BME280;33517;49.866;8.320;2023-02-28T04:20:35;101562.19;;;-3.41;69.71
12868;BME280;33517;49.866;8.320;2023-02-28T04:23:27;101564.75;;;-3.41;70.16
12868;BME280;33517;49.866;8.320;2023-02-28T04:26:19;101566.41;;;-3.40;69.81
12868;BME280;33517;49.866;8.320;2023-02-28T04:29:14;101567.22;;;-3.38;69.82
12868;BME280;33517;49.866;8.320;2023-02-28T04:32:06;101567.06;;;-3.34;70.14
12868;BME280;33517;49.866;8.320;2023-02-28T04:34:57;101559.94;;;-3.26;70.69
12868;BME280;33517;49.866;8.320;2023-02-28T04:37:49;101558.75;;;-3.16;70.58
12868;BME280;33517;49.866;8.320;2023-02-28T04:40:41;101566.91;;;-3.03;70.89
12868;BME280;33517;49.866;8.320;2023-02-28T04:43:33;101559.56;;;-2.89;70.97
12868;BME280;33517;49.866;8.320;2023-02-28T04:46:26;101555.75;;;-2.77;71.82
12868;BME280;33517;49.866;8.320;2023-02-28T04:49:18;101548.41;;;-2.65;72.38
12868;BME280;33517;49.866;8.320;2023-02-28T04:52:10;101548.94;;;-2.55;72.41
12868;BME280;33517;49.866;8.320;2023-02-28T04:55:04;101551.16;;;-2.46;72.30
12868;BME280;33517;49.866;8.320;2023-02-28T04:57:56;101549.22;;;-2.40;71.99
12868;BME280;33517;49.866;8.320;2023-02-28T05:00:48;101548.22;;;-2.36;71.85
12868;BME280;33517;49.866;8.320;2023-02-28T05:03:42;101560.09;;;-2.32;72.63
12868;BME280;33517;49.866;8.320;2023-02-28T05:06:34;101557.28;;;-2.26;72.82
12868;BME280;33517;49.866;8.320;2023-02-28T05:09:26;101554.47;;;-2.20;73.78
12868;BME280;33517;49.866;8.320;2023-02-28T05:12:17;101551.38;;;-2.06;73.82
12868;BME280;33517;49.866;8.320;2023-02-28T05:15:12;101550.94;;;-1.94;73.36
12868;BME280;33517;49.866;8.320;2023-02-28T05:18:04;101556.53;;;-1.83;73.92
12868;BME280;33517;49.866;8.320;2023-02-28T05:20:59;101557.06;;;-1.75;74.24
12868;BME280;33517;49.866;8.320;2023-02-28T05:23:53;101559.59;;;-1.73;74.49
12868;BME280;33517;49.866;8.320;2023-02-28T05:26:46;101556.06;;;-1.71;74.53
12868;BME280;33517;49.866;8.320;2023-02-28T05:29:39;101562.16;;;-1.73;74.20
12868;BME280;33517;49.866;8.320;2023-02-28T05:32:33;101566.00;;;-1.83;74.12
12868;BME280;33517;49.866;8.320;2023-02-28T05:35:26;101559.47;;;-1.92;74.04
12868;BME280;33517;49.866;8.320;2023-02-28T05:38:19;101556.16;;;-1.96;74.82
12868;BME280;33517;49.866;8.320;2023-02-28T05:41:11;101565.78;;;-2.01;74.78
12868;BME280;33517;49.866;8.320;2023-02-28T05:44:03;101564.22;;;-2.05;74.30
12868;BME280;33517;49.866;8.320;2023-02-28T05:46:55;101566.13;;;-2.10;74.62
12868;BME280;33517;49.866;8.320;2023-02-28T05:49:47;101572.38;;;-2.15;74.24
12868;BME280;33517;49.866;8.320;2023-02-28T05:52:38;101573.38;;;-2.19;74.23
12868;BME280;33517;49.866;8.320;2023-02-28T05:55:32;101581.38;;;-2.27;74.74
12868;BME280;33517;49.866;8.320;2023-02-28T05:58:26;101584.19;;;-2.33;74.57
12868;BME280;33517;49.866;8.320;2023-02-28T06:01:24;101577.50;;;-2.38;74.81
12868;BME280;33517;49.866;8.320;2023-02-28T06:04:18;101580.31;;;-2.44;74.41
12868;BME280;33517;49.866;8.320;2023-02-28T06:07:11;101587.31;;;-2.48;74.55
12868;BME280;33517;49.866;8.320;2023-02-28T06:10:03;101588.22;;;-2.49;74.78
12868;BME280;33517;49.866;8.320;2023-02-28T06:12:59;101572.06;;;-2.54;75.17
12868;BME280;33517;49.866;8.320;2023-02-28T06:15:51;101589.25;;;-2.54;74.66
12868;BME280;33517;49.866;8.320;2023-02-28T06:18:43;101583.31;;;-2.56;74.30
12868;BME280;33517;49.866;8.320;2023-02-28T06:21:35;101583.31;;;-2.56;74.77
12868;BME280;33517;49.866;8.320;2023-02-28T06:24:27;101590.16;;;-2.55;74.35
12868;BME280;33517;49.866;8.320;2023-02-28T06:27:21;101596.03;;;-2.52;74.19
12868;BME280;33517;49.866;8.320;2023-02-28T06:30:15;101598.41;;;-2.46;74.10
12868;BME280;33517;49.866;8.320;2023-02-28T06:33:07;101593.81;;;-2.38;74.12
12868;BME280;33517;49.866;8.320;2023-02-28T06:35:59;101596.84;;;-2.27;73.81
12868;BME280;33517;49.866;8.320;2023-02-28T06:38:51;101598.81;;;-2.10;73.31
12868;BME280;33517;49.866;8.320;2023-02-28T06:41:46;101598.06;;;-1.91;73.39
12868;BME280;33517;49.866;8.320;2023-02-28T06:44:38;101602.44;;;-1.69;72.92
12868;BME280;33517;49.866;8.320;2023-02-28T06:47:32;101599.75;;;-1.45;73.33
12868;BME280;33517;49.866;8.320;2023-02-28T06:50:23;101604.84;;;-1.22;72.92
12868;BME280;33517;49.866;8.320;2023-02-28T06:53:15;101616.03;;;-1.01;73.11
12868;BME280;33517;49.866;8.320;2023-02-28T06:56:09;101614.44;;;-0.43;72.96
12868;BME280;33517;49.866;8.320;2023-02-28T06:59:01;101601.66;;;2.63;67.94
12868;BME280;33517;49.866;8.320;2023-02-28T07:01:54;101591.19;;;4.50;62.16
12868;BME280;33517;49.866;8.320;2023-02-28T07:04:47;101597.47;;;6.14;58.59
12868;BME280;33517;49.866;8.320;2023-02-28T07:07:39;101597.34;;;7.34;55.58
12868;BME280;33517;49.866;8.320;2023-02-28T07:10:34;101585.16;;;8.34;52.20
12868;BME280;33517;49.866;8.320;2023-02-28T07:13:28;101590.75;;;8.83;50.25
12868;BME280;33517;49.866;8.320;2023-02-28T07:16:21;101606.59;;;9.34;49.42
12868;BME280;33517;49.866;8.320;2023-02-28T07:19:13;101603.25;;;10.03;47.96
12868;BME280;33517;49.866;8.320;2023-02-28T07:22:06;101604.88;;;10.93;46.94
12868;BME280;33517;49.866;8.320;2023-02-28T07:24:58;101612.75;;;11.41;44.90
12868;BME280;33517;49.866;8.320;2023-02-28T07:27:50;101618.88;;;11.32;43.73
12868;BME280;33517;49.866;8.320;2023-02-28T07:30:42;101621.19;;;11.45;43.64
12868;BME280;33517;49.866;8.320;2023-02-28T07:33:34;101610.97;;;12.34;42.47
12868;BME280;33517;49.866;8.320;2023-02-28T07:36:26;101620.78;;;12.15;42.18
12868;BME280;33517;49.866;8.320;2023-02-28T07:39:19;101620.91;;;10.52;42.90
12868;BME280;33517;49.866;8.320;2023-02-28T07:42:11;101636.72;;;7.78;46.33
12868;BME280;33517;49.866;8.320;2023-02-28T07:45:04;101650.34;;;5.68;49.87
12868;BME280;33517;49.866;8.320;2023-02-28T07:47:56;101640.16;;;4.45;52.07
12868;BME280;33517;49.866;8.320;2023-02-28T07:50:54;101648.72;;;3.63;54.23
12868;BME280;33517;49.866;8.320;2023-02-28T07:53:46;101646.88;;;3.35;55.24
12868;BME280;33517;49.866;8.320;2023-02-28T07:56:39;101644.88;;;3.54;55.23
12868;BME280;33517;49.866;8.320;2023-02-28T07:59:31;101650.84;;;3.56;55.41
12868;BME280;33517;49.866;8.320;2023-02-28T08:02:23;101640.63;;;3.67;55.11
12868;BME280;33517;49.866;8.320;2023-02-28T08:05:15;101647.34;;;3.86;54.78
12868;BME280;33517;49.866;8.320;2023-02-28T08:08:07;101646.59;;;3.84;55.16
12868;BME280;33517;49.866;8.320;2023-02-28T08:11:00;101644.56;;;3.74;54.93
12868;BME280;33517;49.866;8.320;2023-02-28T08:13:54;101646.78;;;3.81;54.99
12868;BME280;33517;49.866;8.320;2023-02-28T08:16:46;101642.69;;;3.77;54.37
12868;BME280;33517;49.866;8.320;2023-02-28T08:19:38;101649.63;;;3.62;54.64
12868;BME280;33517;49.866;8.320;2023-02-28T08:22:29;101648.56;;;3.80;54.96
12868;BME280;33517;49.866;8.320;2023-02-28T08:25:21;101642.59;;;4.06;54.73
12868;BME280;33517;49.866;8.320;2023-02-28T08:28:13;101633.69;;;4.24;54.39
12868;BME280;33517;49.866;8.320;2023-02-28T08:31:10;101637.38;;;4.75;52.57
12868;BME280;33517;49.866;8.320;2023-02-28T08:34:05;101626.13;;;5.01;51.66
12868;BME280;33517;49.866;8.320;2023-02-28T08:36:57;101621.81;;;5.39;49.71
12868;BME280;33517;49.866;8.320;2023-02-28T08:39:49;101630.81;;;6.11;48.57
12868;BME280;33517;49.866;8.320;2023-02-28T08:42:41;101625.56;;;6.23;47.33
12868;BME280;33517;49.866;8.320;2023-02-28T08:45:33;101618.72;;;8.62;43.79
12868;BME280;33517;49.866;8.320;2023-02-28T08:48:28;101609.81;;;12.10;38.81
12868;BME280;33517;49.866;8.320;2023-02-28T08:51:21;101612.06;;;14.32;35.88
12868;BME280;33517;49.866;8.320;2023-02-28T08:54:16;101612.06;;;16.25;32.50
12868;BME280;33517;49.866;8.320;2023-02-28T08:57:09;101617.84;;;15.82;30.94
12868;BME280;33517;49.866;8.320;2023-02-28T09:00:02;101625.72;;;16.06;30.58
12868;BME280;33517;49.866;8.320;2023-02-28T09:02:54;101619.50;;;16.29;30.38
12868;BME280;33517;49.866;8.320;2023-02-28T09:05:56;101627.22;;;16.16;29.76
12868;BME280;33517;49.866;8.320;2023-02-28T09:08:48;101631.38;;;17.71;28.35
12868;BME280;33517;49.866;8.320;2023-02-28T09:11:41;101613.97;;;18.98;26.91
12868;BME280;33517;49.866;8.320;2023-02-28T09:14:32;101619.19;;;19.06;24.83
12868;BME280;33517;49.866;8.320;2023-02-28T09:17:24;101615.59;;;18.99;25.52
12868;BME280;33517;49.866;8.320;2023-02-28T09:20:17;101626.44;;;19.61;25.63
12868;BME280;33517;49.866;8.320;2023-02-28T09:23:11;101626.16;;;19.49;25.05
12868;BME280;33517;49.866;8.320;2023-02-28T09:26:04;101622.97;;;20.22;25.32
12868;BME280;33517;49.866;8.320;2023-02-28T09:28:56;101618.78;;;20.13;24.73
12868;BME280;33517;49.866;8.320;2023-02-28T09:31:49;101622.38;;;19.99;24.51
12868;BME280;33517;49.866;8.320;2023-02-28T09:34:41;101618.38;;;19.54;24.84
12868;BME280;33517;49.866;8.320;2023-02-28T09:37:33;101610.53;;;18.47;24.73
12868;BME280;33517;49.866;8.320;2023-02-28T09:40:26;101634.63;;;15.66;27.41
12868;BME280;33517;49.866;8.320;2023-02-28T09:43:20;101622.69;;;15.62;27.84
12868;BME280;33517;49.866;8.320;2023-02-28T09:46:30;101623.88;;;17.14;26.47
12868;BME280;33517;49.866;8.320;2023-02-28T09:49:27;101615.19;;;17.58;26.32
12868;BME280;33517;49.866;8.320;2023-02-28T09:52:25;101604.34;;;18.32;25.54
12868;BME280;33517;49.866;8.320;2023-02-28T09:55:22;101602.94;;;18.00;25.65
12868;BME280;33517;49.866;8.320;2023-02-28T09:58:26;101618.53;;;14.29;27.97
12868;BME280;33517;49.866;8.320;2023-02-28T10:01:23;101612.44;;;15.51;27.02
12868;BME280;33517;49.866;8.320;2023-02-28T10:04:28;101601.25;;;16.65;27.47
12868;BME280;33517;49.866;8.320;2023-02-28T10:07:38;101610.75;;;18.67;25.15
12868;BME280;33517;49.866;8.320;2023-02-28T10:10:39;101603.38;;;19.53;24.74
12868;BME280;33517;49.866;8.320;2023-02-28T10:13:35;101605.47;;;20.19;23.98
12868;BME280;33517;49.866;8.320;2023-02-28T10:16:31;101603.72;;;20.40;23.76
12868;BME280;33517;49.866;8.320;2023-02-28T10:19:28;101616.97;;;18.23;23.00
12868;BME280;33517;49.866;8.320;2023-02-28T10:22:25;101613.00;;;17.01;24.84
12868;BME280;33517;49.866;8.320;2023-02-28T10:25:22;101611.34;;;18.18;23.73
12868;BME280;33517;49.866;8.320;2023-02-28T10:28:15;101610.03;;;19.36;22.83
12868;BME280;33517;49.866;8.320;2023-02-28T10:31:11;101608.34;;;18.51;22.82
12868;BME280;33517;49.866;8.320;2023-02-28T10:34:07;101622.22;;;18.02;23.41
12868;BME280;33517;49.866;8.320;2023-02-28T10:37:03;101611.78;;;16.81;23.65
12868;BME280;33517;49.866;8.320;2023-02-28T10:39:59;101612.16;;;17.01;23.92
12868;BME280;33517;49.866;8.320;2023-02-28T10:42:55;101609.59;;;15.60;25.48
12868;BME280;33517;49.866;8.320;2023-02-28T10:45:57;101600.88;;;15.91;25.79
12868;BME280;33517;49.866;8.320;2023-02-28T10:49:01;101595.28;;;17.31;25.24
12868;BME280;33517;49.866;8.320;2023-02-28T10:51:55;101592.50;;;17.24;24.69
12868;BME280;33517;49.866;8.320;2023-02-28T10:54:48;101601.25;;;14.25;26.00
12868;BME280;33517;49.866;8.320;2023-02-28T10:57:40;101598.50;;;12.89;27.76
12868;BME280;33517;49.866;8.320;2023-02-28T11:00:34;101597.31;;;15.27;25.87
12868;BME280;33517;49.866;8.320;2023-02-28T11:03:32;101581.41;;;16.53;25.17
12868;BME280;33517;49.866;8.320;2023-02-28T11:06:29;101579.66;;;16.29;24.61
12868;BME280;33517;49.866;8.320;2023-02-28T11:09:23;101577.69;;;17.07;24.89
12868;BME280;33517;49.866;8.320;2023-02-28T11:12:20;101587.97;;;17.70;24.34
12868;BME280;33517;49.866;8.320;2023-02-28T11:15:22;101583.34;;;18.73;23.28
12868;BME280;33517;49.866;8.320;2023-02-28T11:18:23;101581.41;;;18.67;22.99
12868;BME280;33517;49.866;8.320;2023-02-28T11:21:20;101572.69;;;17.12;23.54
12868;BME280;33517;49.866;8.320;2023-02-28T11:24:19;101572.25;;;17.38;23.21
12868;BME280;33517;49.866;8.320;2023-02-28T11:27:25;101571.25;;;18.56;23.63
12868;BME280;33517;49.866;8.320;2023-02-28T11:30:28;101562.28;;;18.42;23.80
12868;BME280;33517;49.866;8.320;2023-02-28T11:33:23;101566.19;;;19.52;22.95
12868;BME280;33517;49.866;8.320;2023-02-28T11:36:18;101564.34;;;17.67;23.81
12868;BME280;33517;49.866;8.320;2023-02-28T11:39:13;101566.50;;;18.72;22.51
12868;BME280;33517;49.866;8.320;2023-02-28T11:42:23;101555.06;;;17.92;23.46
12868;BME280;33517;49.866;8.320;2023-02-28T11:45:25;101558.31;;;18.95;23.29
12868;BME280;33517;49.866;8.320;2023-02-28T11:48:23;101563.44;;;19.17;22.60
12868;BME280;33517;49.866;8.320;2023-02-28T11:51:21;101568.66;;;16.94;24.22
12868;BME280;33517;49.866;8.320;2023-02-28T11:54:30;101568.53;;;13.93;25.32
12868;BME280;33517;49.866;8.320;2023-02-28T11:57:35;101565.97;;;11.99;27.47
12868;BME280;33517;49.866;8.320;2023-02-28T12:00:40;101563.94;;;11.93;29.20
12868;BME280;33517;49.866;8.320;2023-02-28T12:03:44;101560.66;;;12.71;28.69
12868;BME280;33517;49.866;8.320;2023-02-28T12:06:41;101551.06;;;13.23;28.44
12868;BME280;33517;49.866;8.320;2023-02-28T12:09:47;101551.19;;;13.64;27.31
12868;BME280;33517;49.866;8.320;2023-02-28T12:12:50;101548.91;;;14.11;26.23
12868;BME280;33517;49.866;8.320;2023-02-28T12:16:13;101556.41;;;14.98;25.80
12868;BME280;33517;49.866;8.320;2023-02-28T12:19:16;101536.84;;;16.86;25.74
12868;BME280;33517;49.866;8.320;2023-02-28T12:22:22;101543.88;;;17.16;23.94
12868;BME280;33517;49.866;8.320;2023-02-28T12:25:43;101534.09;;;17.31;25.00
12868;BME280;33517;49.866;8.320;2023-02-28T12:28:41;101543.69;;;17.69;24.41
12868;BME280;33517;49.866;8.320;2023-02-28T12:31:35;101543.63;;;17.40;24.12
12868;BME280;33517;49.866;8.320;2023-02-28T12:34:31;101535.25;;;17.80;24.67
12868;BME280;33517;49.866;8.320;2023-02-28T12:37:28;101537.63;;;18.40;23.11
12868;BME280;33517;49.866;8.320;2023-02-28T12:40:27;101537.72;;;17.96;23.96
12868;BME280;33517;49.866;8.320;2023-02-28T12:43:28;101540.16;;;18.27;24.49
12868;BME280;33517;49.866;8.320;2023-02-28T12:46:25;101531.38;;;17.97;24.29
12868;BME280;33517;49.866;8.320;2023-02-28T12:49:23;101533.94;;;17.76;24.43
12868;BME280;33517;49.866;8.320;2023-02-28T12:52:21;101536.75;;;16.71;23.94
12868;BME280;33517;49.866;8.320;2023-02-28T12:55:20;101528.66;;;16.87;24.12
12868;BME280;33517;49.866;8.320;2023-02-28T12:58:20;101534.41;;;17.13;24.49
12868;BME280;33517;49.866;8.320;2023-02-28T13:11:43;101521.56;;;17.69;23.96
12868;BME280;33517;49.866;8.320;2023-02-28T13:14:38;101514.75;;;17.95;24.24
12868;BME280;33517;49.866;8.320;2023-02-28T13:17:30;101513.72;;;18.11;24.14
12868;BME280;33517;49.866;8.320;2023-02-28T13:20:24;101517.00;;;18.27;24.05
12868;BME280;33517;49.866;8.320;2023-02-28T13:23:39;101522.22;;;17.04;24.35
12868;BME280;33517;49.866;8.320;2023-02-28T13:30:02;101524.59;;;16.99;24.29
12868;BME280;33517;49.866;8.320;2023-02-28T13:33:25;101517.31;;;16.93;24.11
12868;BME280;33517;49.866;8.320;2023-02-28T13:36:26;101510.91;;;17.39;24.33
12868;BME280;33517;49.866;8.320;2023-02-28T13:39:46;101509.94;;;16.81;23.79
12868;BME280;33517;49.866;8.320;2023-02-28T13:42:47;101515.88;;;17.05;24.36
12868;BME280;33517;49.866;8.320;2023-02-28T13:46:09;101518.06;;;16.65;24.76
12868;BME280;33517;49.866;8.320;2023-02-28T13:49:25;101516.94;;;16.59;24.66
12868;BME280;33517;49.866;8.320;2023-02-28T13:52:21;101519.09;;;16.55;24.47
12868;BME280;33517;49.866;8.320;2023-02-28T13:55:25;101519.81;;;16.49;24.12
12868;BME280;33517;49.866;8.320;2023-02-28T13:58:48;101525.22;;;15.24;25.19
12868;BME280;33517;49.866;8.320;2023-02-28T14:01:55;101511.03;;;15.72;25.24
12868;BME280;33517;49.866;8.320;2023-02-28T14:05:00;101510.75;;;15.66;25.06
12868;BME280;33517;49.866;8.320;2023-02-28T14:07:55;101501.91;;;16.13;25.29
12868;BME280;33517;49.866;8.320;2023-02-28T14:10:49;101508.38;;;16.10;24.99
12868;BME280;33517;49.866;8.320;2023-02-28T14:13:43;101507.06;;;15.76;24.97
12868;BME280;33517;49.866;8.320;2023-02-28T14:16:39;101507.66;;;15.23;25.45
12868;BME280;33517;49.866;8.320;2023-02-28T14:19:35;101504.38;;;15.13;25.84
12868;BME280;33517;49.866;8.320;2023-02-28T14:22:49;101501.88;;;15.11;25.78
12868;BME280;33517;49.866;8.320;2023-02-28T14:25:53;101503.38;;;15.14;25.46
12868;BME280;33517;49.866;8.320;2023-02-28T14:29:00;101498.91;;;14.66;26.22
12868;BME280;33517;49.866;8.320;2023-02-28T14:32:02;101511.47;;;13.05;26.95
12868;BME280;33517;49.866;8.320;2023-02-28T14:35:03;101511.16;;;11.66;28.66
12868;BME280;33517;49.866;8.320;2023-02-28T14:38:05;101515.34;;;10.84;29.51
12868;BME280;33517;49.866;8.320;2023-02-28T14:41:01;101512.41;;;9.50;31.56
12868;BME280;33517;49.866;8.320;2023-02-28T14:43:56;101505.09;;;9.23;32.20
12868;BME280;33517;49.866;8.320;2023-02-28T14:46:50;101504.25;;;8.82;33.47
12868;BME280;33517;49.866;8.320;2023-02-28T14:49:44;101502.56;;;8.60;33.09
12868;BME280;33517;49.866;8.320;2023-02-28T14:52:38;101499.06;;;8.39;33.23
12868;BME280;33517;49.866;8.320;2023-02-28T14:55:34;101501.22;;;8.23;33.56
12868;BME280;33517;49.866;8.320;2023-02-28T14:58:28;101493.25;;;8.13;35.08
12868;BME280;33517;49.866;8.320;2023-02-28T15:01:22;101482.16;;;7.78;35.78
12868;BME280;33517;49.866;8.320;2023-02-28T15:04:22;101491.53;;;7.92;35.01
12868;BME280;33517;49.866;8.320;2023-02-28T15:07:16;101491.03;;;7.87;35.82
12868;BME280;33517;49.866;8.320;2023-02-28T15:10:18;101491.91;;;7.76;35.22
12868;BME280;33517;49.866;8.320;2023-02-28T15:13:12;101493.25;;;7.60;36.29
12868;BME280;33517;49.866;8.320;2023-02-28T15:16:08;101484.31;;;7.40;36.30
12868;BME280;33517;49.866;8.320;2023-02-28T15:19:04;101485.50;;;7.36;36.24
12868;BME280;33517;49.866;8.320;2023-02-28T15:21:59;101494.72;;;7.18;36.45
12868;BME280;33517;49.866;8.320;2023-02-28T15:24:52;101487.47;;;7.10;36.84
12868;BME280;33517;49.866;8.320;2023-02-28T15:27:47;101486.53;;;7.11;37.86
12868;BME280;33517;49.866;8.320;2023-02-28T15:30:51;101483.78;;;7.13;37.88
12868;BME280;33517;49.866;8.320;2023-02-28T15:33:52;101489.94;;;7.01;37.44
12868;BME280;33517;49.866;8.320;2023-02-28T15:36:45;101497.31;;;6.96;38.32
12868;BME280;33517;49.866;8.320;2023-02-28T15:39:42;101491.50;;;6.92;38.25
12868;BME280;33517;49.866;8.320;2023-02-28T15:42:35;101500.28;;;6.91;37.74
12868;BME280;33517;49.866;8.320;2023-02-28T15:45:32;101499.53;;;6.78;38.32
12868;BME280;33517;49.866;8.320;2023-02-28T15:48:30;101501.53;;;6.75;38.20